Time;durP1;ratioP1;P1;durP2;ratioP2;P2;SDS_P1;SDS_P2;PMS_P1;PMS_P2;Temp;Humidity;BMP_temperature;BMP_pressure;BME280_temperature;BME280_humidity;BME280_pressure;Samples;Min_cycle;Max_cycle;Signal;HPM_P1;HPM_P2
2023/10/19 10:03:54;;;;;;;19.10;7.40;;;;;;;11.45;68.71;97931.11;102105;1294;636002;-80
2023/10/19 10:06:50;;;;;;;19.00;7.40;;;;;;;11.47;68.66;97931.91;105325;1257;94321;-79
2023/10/19 10:09:23;;;;;;;16.50;7.20;;;;;;;11.48;68.49;97928.52;105464;1257;94421;-78
2023/10/19 10:11:53;;;;;;;17.60;7.00;;;;;;;11.49;68.66;97920.55;105165;1260;107163;-79
2023/10/19 10:14:24;;;;;;;14.30;6.50;;;;;;;11.50;68.72;97917.10;105536;1254;95858;-79
2023/10/19 10:17:01;;;;;;;19.50;8.60;;;;;;;11.50;68.71;97914.11;105236;1258;360180;-79
2023/10/19 10:19:33;;;;;;;22.70;8.30;;;;;;;11.51;68.67;97918.84;105616;1257;94327;-79
2023/10/19 10:22:20;;;;;;;17.90;8.20;;;;;;;11.52;68.51;97917.45;105486;1256;94399;-79
2023/10/19 10:24:54;;;;;;;15.70;6.90;;;;;;;11.53;68.70;97907.77;105863;1254;107191;-77
2023/10/19 10:27:23;;;;;;;18.50;7.50;;;;;;;11.57;68.75;97909.03;105483;1251;95429;-79
2023/10/19 10:30:06;;;;;;;23.00;7.60;;;;;;;11.61;68.75;97920.53;105950;1251;95226;-79
2023/10/19 10:32:55;;;;;;;16.10;6.40;;;;;;;11.67;68.55;97919.98;105505;1251;95322;-79
2023/10/19 10:35:40;;;;;;;16.80;6.10;;;;;;;11.74;68.74;97909.46;105607;1251;95176;-79
2023/10/19 10:38:11;;;;;;;13.10;5.60;;;;;;;11.88;68.73;97909.56;105528;1251;108156;-78
2023/10/19 10:40:49;;;;;;;14.00;5.80;;;;;;;12.00;68.66;97914.14;105518;1251;95580;-80
2023/10/19 10:43:19;;;;;;;13.90;5.90;;;;;;;12.08;68.65;97908.73;105672;1255;107607;-79
2023/10/19 10:45:49;;;;;;;13.90;6.30;;;;;;;12.17;68.64;97899.57;105728;1254;95703;-78
2023/10/19 10:48:22;;;;;;;14.20;6.20;;;;;;;12.23;68.58;97885.48;105934;1253;95192;-77
2023/10/19 10:50:53;;;;;;;18.00;5.70;;;;;;;12.30;68.32;97877.20;105670;1251;108600;-78
2023/10/19 10:53:26;;;;;;;14.00;5.60;;;;;;;12.33;68.40;97865.27;105855;1255;95278;-77
2023/10/19 10:55:55;;;;;;;14.50;6.00;;;;;;;12.32;68.17;97878.73;105885;1254;107829;-79
2023/10/19 10:58:24;;;;;;;11.90;5.20;;;;;;;12.27;68.18;97871.73;106266;1256;95317;-85
2023/10/19 11:00:51;;;;;;;14.50;6.40;;;;;;;12.24;68.11;97881.64;106937;1251;95252;-85
2023/10/19 11:03:18;;;;;;;13.20;6.00;;;;;;;12.23;68.25;97879.10;106235;1256;107037;-78
2023/10/19 11:05:47;;;;;;;13.50;6.10;;;;;;;12.24;68.11;97875.08;105548;1251;96488;-78
2023/10/19 11:08:21;;;;;;;12.10;4.90;;;;;;;12.27;67.96;97869.46;105746;1264;95303;-78
2023/10/19 11:10:51;;;;;;;12.50;5.70;;;;;;;12.27;67.93;97856.14;105534;1256;95220;-77
2023/10/19 11:13:23;;;;;;;15.60;6.30;;;;;;;12.27;68.02;97852.38;105649;1256;95170;-78
2023/10/19 11:15:56;;;;;;;13.30;5.80;;;;;;;12.30;68.07;97844.58;105581;1253;108119;-79
2023/10/19 11:18:33;;;;;;;;;;;;;;;12.33;68.13;97831.85;105538;1254;95166;-78
2023/10/19 11:21:04;;;;;;;15.10;6.30;;;;;;;12.35;68.02;97827.03;105767;1254;107580;-78
2023/10/19 11:23:37;;;;;;;18.80;6.60;;;;;;;12.38;67.98;97824.77;105752;1250;96277;-78
2023/10/19 11:26:05;;;;;;;16.50;6.80;;;;;;;12.42;68.00;97828.38;105549;1251;95962;-78
2023/10/19 11:28:33;;;;;;;14.60;6.50;;;;;;;12.42;67.95;97833.99;105552;1253;107542;-79
2023/10/19 11:31:17;;;;;;;15.20;6.00;;;;;;;12.42;67.94;97827.79;105552;1256;95179;-78
2023/10/19 11:33:50;;;;;;;17.70;6.80;;;;;;;12.41;67.94;97826.98;105578;1251;107212;-78
2023/10/19 11:36:20;;;;;;;12.70;5.40;;;;;;;12.40;67.90;97826.05;105432;1256;95351;-77
2023/10/19 11:38:48;;;;;;;13.40;5.80;;;;;;;12.39;67.75;97830.44;105840;1250;96270;-78
2023/10/19 11:41:16;;;;;;;12.60;5.30;;;;;;;12.34;67.77;97837.41;106119;1251;108513;-78
2023/10/19 11:43:45;;;;;;;17.60;6.30;;;;;;;12.29;67.72;97837.20;105584;1254;95312;-78
2023/10/19 11:46:12;;;;;;;14.70;5.80;;;;;;;12.26;67.82;97834.33;106274;1254;107606;-79
2023/10/19 11:48:45;;;;;;;10.30;4.90;;;;;;;12.21;67.49;97833.77;106786;1250;95272;-77
2023/10/19 11:51:11;;;;;;;14.90;5.90;;;;;;;12.16;67.69;97830.69;105501;1251;95215;-79
2023/10/19 11:53:42;;;;;;;9.00;4.20;;;;;;;12.13;67.64;97827.63;105576;1254;95242;-78
2023/10/19 11:56:16;;;;;;;13.80;4.90;;;;;;;12.07;67.61;97827.34;105755;1251;95407;-78
2023/10/19 11:58:46;;;;;;;14.10;4.90;;;;;;;12.01;67.51;97833.44;105868;1251;107920;-78
2023/10/19 12:01:13;;;;;;;14.20;5.40;;;;;;;11.93;67.55;97835.00;105767;1257;96177;-78
2023/10/19 12:03:45;;;;;;;10.10;4.70;;;;;;;11.87;67.62;97832.27;105905;1254;95163;-78
2023/10/19 12:06:13;;;;;;;8.90;4.00;;;;;;;11.82;67.53;97820.86;105734;1251;108520;-78
2023/10/19 12:08:40;;;;;;;13.90;4.90;;;;;;;11.76;67.60;97815.17;105668;1254;95154;-78
2023/10/19 12:11:15;;;;;;;12.30;4.80;;;;;;;11.73;67.62;97808.24;105418;1254;95303;-78
2023/10/19 12:13:46;;;;;;;12.10;5.90;;;;;;;11.67;67.49;97798.99;105624;1255;95252;-79
2023/10/19 12:16:17;;;;;;;14.40;5.80;;;;;;;11.64;67.58;97798.45;105877;1251;95245;-78
2023/10/19 12:18:45;;;;;;;13.80;6.10;;;;;;;11.61;67.53;97795.14;105919;1252;106409;-78
2023/10/19 12:21:11;;;;;;;13.10;5.80;;;;;;;11.57;67.51;97798.55;105926;1253;95248;-78
2023/10/19 12:23:44;;;;;;;17.70;6.80;;;;;;;11.52;67.52;97793.00;105553;1251;95251;-78
2023/10/19 12:26:12;;;;;;;;;;;;;;;11.49;67.61;97789.19;105531;1255;95232;-78
2023/10/19 12:28:40;;;;;;;14.30;5.90;;;;;;;11.44;67.57;97784.15;105597;1254;95255;-79
2023/10/19 12:31:13;;;;;;;12.30;5.60;;;;;;;11.41;67.68;97776.14;105514;1256;108096;-77
2023/10/19 12:33:41;;;;;;;16.50;6.20;;;;;;;11.39;67.53;97766.42;105590;1264;95457;-78
2023/10/19 12:38:57;;;;;;;14.90;5.90;;;;;;;11.37;67.70;97743.66;105450;1253;95323;-78
2023/10/19 12:41:27;;;;;;;11.30;4.80;;;;;;;11.38;67.65;97739.87;105615;1251;96311;-78
2023/10/19 12:43:58;;;;;;;10.40;4.60;;;;;;;11.38;67.73;97734.69;105456;1254;108594;-78
2023/10/19 12:46:25;;;;;;;7.60;4.20;;;;;;;11.37;67.59;97730.20;105423;1254;96257;-80
2023/10/19 12:48:54;;;;;;;14.10;6.10;;;;;;;11.36;67.65;97729.03;105800;1255;95327;-78
2023/10/19 12:51:26;;;;;;;10.30;4.90;;;;;;;11.33;67.66;97718.17;105445;1257;95280;-78
2023/10/19 12:53:56;;;;;;;14.80;5.10;;;;;;;11.29;67.58;97723.16;105660;1257;95279;-77
2023/10/19 12:56:29;;;;;;;11.00;4.60;;;;;;;11.26;67.72;97724.36;105538;1270;108899;-78
2023/10/19 12:59:00;;;;;;;19.90;8.00;;;;;;;11.23;67.66;97722.52;105529;1256;95513;-78
2023/10/19 13:01:28;;;;;;;19.20;7.60;;;;;;;11.21;67.68;97716.61;105550;1255;95313;-78
2023/10/19 13:03:55;;;;;;;18.50;7.50;;;;;;;11.21;67.68;97707.77;105671;1257;95247;-78
2023/10/19 13:06:23;;;;;;;17.00;7.00;;;;;;;11.20;67.77;97707.56;105833;1251;95157;-79
2023/10/19 13:08:52;;;;;;;11.80;4.60;;;;;;;11.17;67.96;97702.30;105782;1254;108135;-78
2023/10/19 13:11:19;;;;;;;11.70;4.40;;;;;;;11.15;67.94;97697.36;105483;1255;95506;-79
2023/10/19 13:13:46;;;;;;;12.80;5.00;;;;;;;11.12;67.82;97694.59;105752;1257;96180;-77
2023/10/19 13:16:15;;;;;;;10.00;4.30;;;;;;;11.12;67.82;97694.47;105683;1254;95230;-78
2023/10/19 13:18:43;;;;;;;12.30;4.90;;;;;;;11.10;67.78;97688.59;105650;1258;95198;-78
2023/10/19 13:21:11;;;;;;;8.30;3.80;;;;;;;11.09;67.84;97689.90;105728;1254;108065;-78
2023/10/19 13:23:41;;;;;;;7.70;4.30;;;;;;;11.09;67.89;97687.11;105685;1251;95271;-78
2023/10/19 13:28:44;;;;;;;14.50;5.60;;;;;;;11.10;67.93;97684.95;105711;1251;95842;-79
2023/10/19 13:31:13;;;;;;;12.00;4.70;;;;;;;11.09;67.96;97683.88;105912;1254;95274;-78
2023/10/19 13:33:44;;;;;;;9.60;4.50;;;;;;;11.09;68.14;97683.73;105902;1254;108491;-78
2023/10/19 13:36:13;;;;;;;13.70;4.70;;;;;;;11.06;68.04;97680.31;105540;1252;95476;-78
2023/10/19 13:38:41;;;;;;;9.90;4.40;;;;;;;11.04;68.05;97672.88;105425;1250;107683;-78
2023/10/19 13:41:09;;;;;;;12.40;4.40;;;;;;;11.01;68.22;97667.77;105375;1256;95460;-77
2023/10/19 13:43:42;;;;;;;11.70;4.50;;;;;;;10.99;68.11;97665.58;105518;1256;95253;-78
2023/10/19 13:46:09;;;;;;;11.70;5.30;;;;;;;10.97;68.07;97667.72;105515;1256;108472;-78
2023/10/19 13:48:38;;;;;;;11.20;4.90;;;;;;;10.95;68.29;97663.77;105360;1266;95268;-78
2023/10/19 13:51:15;;;;;;;15.10;5.40;;;;;;;10.91;68.22;97669.18;105236;1272;107435;-78
2023/10/19 13:53:44;;;;;;;12.60;5.20;;;;;;;10.88;68.23;97666.05;105413;1251;95352;-78
2023/10/19 13:56:22;;;;;;;11.90;5.30;;;;;;;10.84;68.38;97664.08;105563;1255;95246;-78
2023/10/19 13:58:48;;;;;;;10.20;5.10;;;;;;;10.80;68.23;97661.14;105316;1256;108502;-79
2023/10/19 14:01:28;;;;;;;14.70;5.50;;;;;;;10.76;68.29;97657.11;105507;1256;95356;-78
2023/10/19 14:03:58;;;;;;;10.80;5.10;;;;;;;10.73;68.49;97650.79;105554;1266;107221;-78
2023/10/19 14:06:27;;;;;;;13.00;5.40;;;;;;;10.70;68.55;97641.31;105844;1254;95281;-77
2023/10/19 14:08:54;;;;;;;8.40;3.80;;;;;;;10.66;68.55;97641.41;105605;1256;95240;-79
2023/10/19 14:11:23;;;;;;;9.40;4.70;;;;;;;10.61;68.59;97637.56;105545;1257;95313;-78
2023/10/19 14:13:52;;;;;;;9.80;4.90;;;;;;;10.58;68.61;97638.96;105568;1266;95250;-78
2023/10/19 14:16:19;;;;;;;9.50;4.50;;;;;;;10.54;68.74;97634.00;105479;1256;107598;-79
2023/10/19 14:18:47;;;;;;;16.00;5.70;;;;;;;10.51;68.65;97633.22;105359;1256;96584;-78
2023/10/19 14:21:18;;;;;;;15.10;5.00;;;;;;;10.48;68.42;97633.35;105615;1255;96658;-78
2023/10/19 14:23:46;;;;;;;11.30;5.20;;;;;;;10.46;68.83;97631.94;105885;1257;110224;-78
2023/10/19 14:26:17;;;;;;;10.50;5.20;;;;;;;10.42;68.76;97632.80;105325;1254;96525;-79
2023/10/19 14:28:44;;;;;;;15.00;6.90;;;;;;;10.40;68.78;97634.04;105693;1254;107407;-78
2023/10/19 14:31:16;;;;;;;15.20;6.10;;;;;;;10.39;68.76;97631.71;105614;1257;96680;-78
2023/10/19 14:33:50;;;;;;;10.10;4.80;;;;;;;10.36;68.93;97630.70;105428;1254;96526;-78
2023/10/19 14:36:17;;;;;;;13.80;5.40;;;;;;;10.33;68.94;97630.98;105456;1251;96709;-78
2023/10/19 14:38:46;;;;;;;9.40;4.60;;;;;;;10.32;68.93;97624.02;105616;1257;97533;-78
2023/10/19 14:41:17;;;;;;;13.30;6.10;;;;;;;10.30;69.03;97620.46;105527;1257;107611;-77
2023/10/19 14:43:44;;;;;;;21.10;7.70;;;;;;;10.30;69.17;97616.09;105497;1257;96682;-77
2023/10/19 14:46:13;;;;;;;20.30;8.60;;;;;;;10.27;68.90;97616.77;105356;1257;96669;-78
2023/10/19 14:48:46;;;;;;;20.50;8.00;;;;;;;10.25;69.16;97613.84;105360;1257;109403;-77
2023/10/19 14:51:13;;;;;;;14.00;5.90;;;;;;;10.24;69.07;97616.53;105634;1255;97828;-78
2023/10/19 14:53:40;;;;;;;8.40;4.30;;;;;;;10.24;69.22;97611.98;105479;1257;97118;-78
2023/10/19 14:56:07;;;;;;;14.60;5.70;;;;;;;10.20;69.28;97605.41;105684;1256;96669;-79
2023/10/19 14:58:34;;;;;;;19.20;8.30;;;;;;;10.18;69.25;97604.20;105682;1256;96574;-78
2023/10/19 15:01:01;;;;;;;14.90;6.90;;;;;;;10.18;69.24;97600.73;105857;1255;96606;-79
2023/10/19 15:03:35;;;;;;;15.70;7.30;;;;;;;10.17;69.24;97604.15;105496;1257;96631;-78
2023/10/19 15:06:03;;;;;;;12.20;5.30;;;;;;;10.16;69.37;97602.33;105854;1256;107582;-78
2023/10/19 15:08:31;;;;;;;16.40;7.70;;;;;;;10.13;69.56;97599.19;105792;1256;97841;-78
2023/10/19 15:11:03;;;;;;;12.40;6.60;;;;;;;10.10;69.39;97598.71;105863;1255;96574;-78
2023/10/19 15:13:29;;;;;;;27.20;16.40;;;;;;;10.09;69.34;97602.21;105629;1254;96590;-77
2023/10/19 15:15:56;;;;;;;30.90;15.50;;;;;;;10.09;69.56;97593.08;105651;1256;96634;-77
2023/10/19 15:18:24;;;;;;;21.10;12.40;;;;;;;10.07;69.55;97598.85;107828;1251;97908;-78
2023/10/19 15:20:51;;;;;;;24.50;15.70;;;;;;;10.07;69.52;97597.50;105740;1252;97537;-78
2023/10/19 15:23:18;;;;;;;15.70;6.80;;;;;;;10.07;69.66;97601.58;106440;1253;97537;-78
2023/10/19 15:25:47;;;;;;;14.10;6.10;;;;;;;10.05;69.83;97604.55;105394;1256;97592;-78
2023/10/19 15:28:20;;;;;;;20.70;10.40;;;;;;;10.04;70.07;97598.48;105557;1254;97097;-79
2023/10/19 15:30:50;;;;;;;18.80;8.20;;;;;;;10.03;69.67;97605.67;105652;1256;107800;-78
2023/10/19 15:33:20;;;;;;;17.30;7.40;;;;;;;10.03;69.82;97603.12;106067;1257;96628;-78
2023/10/19 15:35:51;;;;;;;18.40;7.70;;;;;;;10.02;69.74;97606.39;105770;1257;96577;-80
2023/10/19 15:38:20;;;;;;;18.30;7.20;;;;;;;10.03;69.88;97603.50;105608;1251;109232;-78
2023/10/19 15:40:49;;;;;;;16.70;6.70;;;;;;;10.02;70.04;97603.77;105661;1256;96572;-78
2023/10/19 15:43:19;;;;;;;17.10;7.60;;;;;;;10.00;70.07;97605.88;105613;1251;96635;-78
2023/10/19 15:45:48;;;;;;;15.10;7.10;;;;;;;10.00;70.11;97613.89;106068;1251;96962;-80
2023/10/19 15:48:16;;;;;;;20.20;10.20;;;;;;;9.99;70.01;97616.10;106409;1254;98555;-80
2023/10/19 15:50:44;;;;;;;20.10;8.70;;;;;;;9.98;70.07;97614.38;106207;1254;109829;-81
2023/10/19 15:53:14;;;;;;;17.50;7.70;;;;;;;9.97;70.23;97613.05;105808;1259;96730;-80
